createdAt,value
2023-05-02T00:02:22.144Z,86250.41
2023-05-02T00:04:49.112Z,86286.28
2023-05-02T00:07:16.055Z,86230.38
2023-05-02T00:09:43.104Z,86284.91
2023-05-02T00:12:10.038Z,86184.09
2023-05-02T00:14:36.965Z,86231.72
2023-05-02T00:17:04.093Z,86203.38
2023-05-02T00:19:31.090Z,86282.81
2023-05-02T00:21:58.139Z,86286.25
2023-05-02T00:24:25.310Z,86207.50
2023-05-02T00:26:52.437Z,86280.75
2023-05-02T00:29:19.461Z,86279.34
2023-05-02T00:31:47.599Z,86284.13
2023-05-02T00:34:14.646Z,86282.75
2023-05-02T00:36:42.183Z,86275.84
2023-05-02T00:39:09.796Z,86282.00
2023-05-02T00:41:36.916Z,86234.41
2023-05-02T00:44:03.866Z,86246.13
2023-05-02T00:46:31.451Z,86277.94
2023-05-02T00:48:58.577Z,86283.41
2023-05-02T00:51:27.468Z,86232.22
2023-05-02T00:53:54.725Z,86264.66
2023-05-02T00:56:21.852Z,86236.31
2023-05-02T00:58:49.043Z,86252.97
2023-05-02T01:01:28.224Z,86280.59
2023-05-02T01:04:05.014Z,86282.72
2023-05-02T01:06:59.824Z,86280.59
2023-05-02T01:09:50.056Z,86268.09
2023-05-02T01:13:01.566Z,86128.56
2023-05-02T01:15:28.836Z,86257.72
2023-05-02T01:17:57.205Z,86281.88
2023-05-02T01:20:28.110Z,86227.97
2023-05-02T01:23:00.608Z,86217.56
2023-05-02T01:25:37.965Z,86286.03
2023-05-02T01:28:28.664Z,86291.47
2023-05-02T01:30:57.321Z,86290.81
2023-05-02T01:33:27.177Z,86283.25
2023-05-02T01:35:56.188Z,86211.44
2023-05-02T01:38:25.572Z,86278.38
2023-05-02T01:40:54.221Z,86281.81
2023-05-02T01:43:22.182Z,86240.34
2023-05-02T01:45:51.510Z,86249.97
2023-05-02T01:48:19.905Z,86245.88
2023-05-02T01:50:48.836Z,86236.22
2023-05-02T01:53:16.701Z,86266.56
2023-05-02T01:55:46.093Z,86281.78
2023-05-02T01:58:15.702Z,86237.69
2023-05-02T02:00:45.589Z,86263.25
2023-05-02T02:03:14.354Z,86272.25
2023-05-02T02:05:41.953Z,86265.28
2023-05-02T02:08:09.166Z,86262.44
2023-05-02T02:10:45.394Z,86198.88
2023-05-02T02:13:25.968Z,86237.47
2023-05-02T02:15:58.034Z,86262.44
2023-05-02T02:18:27.909Z,86227.84
2023-05-02T02:20:57.418Z,86262.38
2023-05-02T02:23:27.380Z,86254.09
2023-05-02T02:25:56.161Z,86208.47
2023-05-02T02:28:23.246Z,86261.69
2023-05-02T02:30:50.436Z,86231.19
2023-05-02T02:33:18.165Z,86269.94
2023-05-02T02:35:50.687Z,86278.81
2023-05-02T02:38:23.600Z,86200.56
2023-05-02T02:40:57.800Z,86212.97
2023-05-02T02:43:24.679Z,86275.88
2023-05-02T02:46:14.710Z,86281.41
2023-05-02T02:49:14.172Z,86278.66
2023-05-02T02:52:02.829Z,86271.00
2023-05-02T02:54:35.936Z,86232.31
2023-05-02T02:57:16.607Z,86164.47
2023-05-02T02:59:55.378Z,86199.09
2023-05-02T03:02:28.449Z,86273.00
2023-05-02T03:04:57.410Z,86203.72
2023-05-02T03:07:27.555Z,86216.81
2023-05-02T03:09:54.903Z,86249.44
2023-05-02T03:12:24.351Z,86231.44
2023-05-02T03:14:51.852Z,86275.72
2023-05-02T03:17:26.210Z,86212.56
2023-05-02T03:19:53.668Z,86083.56
2023-05-02T03:22:20.709Z,86224.41
2023-05-02T03:24:49.477Z,86189.16
2023-05-02T03:27:16.555Z,86288.03
2023-05-02T03:29:43.543Z,86217.44
2023-05-02T03:32:12.303Z,86253.25
2023-05-02T03:34:41.883Z,86287.97
2023-05-02T03:37:09.758Z,86253.38
2023-05-02T03:39:36.766Z,86217.31
2023-05-02T03:42:05.777Z,86227.78
2023-05-02T03:44:33.085Z,86292.06
2023-05-02T03:47:00.247Z,86244.41
2023-05-02T03:49:28.056Z,86206.13
2023-05-02T03:51:55.295Z,86240.81
2023-05-02T03:54:27.445Z,86214.41
2023-05-02T03:56:55.480Z,86280.28
2023-05-02T03:59:28.365Z,86314.34
2023-05-02T04:01:56.718Z,86239.47
2023-05-02T04:04:32.984Z,86218.75
2023-05-02T04:07:00.243Z,86296.94
2023-05-02T04:09:27.418Z,86282.50
2023-05-02T04:11:59.299Z,86319.16
2023-05-02T04:14:26.252Z,86327.47
2023-05-02T04:16:55.292Z,86301.81
2023-05-02T04:19:31.454Z,86288.25
2023-05-02T04:21:58.731Z,86315.28
2023-05-02T04:24:25.843Z,86310.47
2023-05-02T04:26:53.197Z,86231.72
2023-05-02T04:29:20.321Z,86310.56
2023-05-02T04:31:47.873Z,86316.13
2023-05-02T04:34:15.326Z,86269.09
2023-05-02T04:36:48.500Z,86318.91
2023-05-02T04:39:28.301Z,86281.63
2023-05-02T04:42:05.632Z,86319.06
2023-05-02T04:44:38.044Z,86262.34
2023-05-02T04:47:05.323Z,86330.81
2023-05-02T04:49:32.624Z,86329.44
2023-05-02T04:51:59.574Z,86338.44
2023-05-02T04:54:26.960Z,86262.38
2023-05-02T04:56:54.105Z,86313.59
2023-05-02T04:59:23.948Z,86328.19
2023-05-02T05:01:51.025Z,86312.34
2023-05-02T05:04:18.593Z,86244.63
2023-05-02T05:06:47.619Z,86270.22
2023-05-02T05:09:15.316Z,86246.13
2023-05-02T05:11:43.815Z,86298.69
2023-05-02T05:14:10.984Z,86324.25
2023-05-02T05:16:40.180Z,86338.72
2023-05-02T05:19:07.430Z,86332.53
2023-05-02T05:21:37.483Z,86326.41
2023-05-02T05:24:06.442Z,86273.88
2023-05-02T05:26:33.371Z,86325.03
2023-05-02T05:29:00.370Z,86278.06
2023-05-02T05:31:32.683Z,86338.19
2023-05-02T05:34:02.532Z,86332.69
2023-05-02T05:36:31.552Z,86323.69
2023-05-02T05:38:58.461Z,86338.91
2023-05-02T05:41:25.459Z,86340.28
2023-05-02T05:43:59.568Z,86344.44
2023-05-02T05:46:27.837Z,86345.81
2023-05-02T05:48:55.516Z,86348.59
2023-05-02T05:51:22.697Z,86309.22
2023-05-02T05:53:50.041Z,86335.44
2023-05-02T05:56:18.350Z,86327.16
2023-05-02T05:58:55.172Z,86327.84
2023-05-02T06:01:22.230Z,86344.44
2023-05-02T06:03:49.794Z,86366.53
2023-05-02T06:06:18.403Z,86290.59
2023-05-02T06:08:45.457Z,86344.44
2023-05-02T06:11:12.606Z,86314.06
2023-05-02T06:13:39.792Z,86315.41
2023-05-02T06:16:08.249Z,86344.41
2023-05-02T06:18:35.429Z,86329.88
2023-05-02T06:21:06.546Z,86302.97
2023-05-02T06:23:33.508Z,86314.69
2023-05-02T06:26:01.814Z,86349.16
2023-05-02T06:28:29.851Z,86360.88
2023-05-02T06:31:01.618Z,86308.41
2023-05-02T06:33:33.105Z,86318.06
2023-05-02T06:36:01.627Z,86343.56
2023-05-02T06:38:29.916Z,86364.97
2023-05-02T06:40:56.954Z,86362.16
2023-05-02T06:43:28.444Z,86293.16
2023-05-02T06:45:56.521Z,86353.09
2023-05-02T06:48:23.659Z,86304.09
2023-05-02T06:50:52.331Z,86285.41
2023-05-02T06:53:19.317Z,86265.34
2023-05-02T06:55:47.046Z,86349.34
2023-05-02T06:58:14.326Z,86343.75
2023-05-02T07:00:43.772Z,86338.28
2023-05-02T07:03:11.557Z,86318.88
2023-05-02T07:05:38.599Z,86329.28
2023-05-02T07:08:05.918Z,86339.66
2023-05-02T07:10:33.095Z,86347.06
2023-05-02T07:13:00.016Z,86304.91
2023-05-02T07:15:27.595Z,86288.38
2023-05-02T07:17:54.600Z,86343.47
2023-05-02T07:20:21.622Z,86325.50
2023-05-02T07:22:48.843Z,86354.41
2023-05-02T07:25:15.990Z,86250.97
2023-05-02T07:27:43.022Z,86314.19
2023-05-02T07:30:10.233Z,86344.34
2023-05-02T07:32:37.168Z,86351.88
2023-05-02T07:35:04.325Z,86300.22
2023-05-02T07:37:37.933Z,86329.03
2023-05-02T07:40:05.512Z,86359.97
2023-05-02T07:42:36.004Z,86291.94
2023-05-02T07:45:03.173Z,86361.97
2023-05-02T07:47:30.072Z,86336.41
2023-05-02T07:49:57.161Z,86294.25
2023-05-02T07:52:24.330Z,86321.78
2023-05-02T07:54:51.964Z,86355.34
2023-05-02T07:57:19.458Z,86356.09
2023-05-02T07:59:46.546Z,86360.09
2023-05-02T08:02:14.307Z,86316.53
2023-05-02T08:04:41.489Z,86306.22
2023-05-02T08:07:08.641Z,86308.16
2023-05-02T08:09:35.817Z,86370.75
2023-05-02T08:12:03.646Z,86358.19
2023-05-02T08:14:32.742Z,86348.56
2023-05-02T08:17:00.552Z,86370.97
2023-05-02T08:19:28.059Z,86370.91
2023-05-02T08:21:55.737Z,86348.88
2023-05-02T08:24:22.939Z,86321.88
2023-05-02T08:26:50.172Z,86350.66
2023-05-02T08:29:17.488Z,86365.59
2023-05-02T08:31:44.513Z,86362.06
2023-05-02T08:34:11.581Z,86311.63
2023-05-02T08:36:38.681Z,86349.44
2023-05-02T08:39:08.199Z,86288.16
2023-05-02T08:41:35.663Z,86326.78
2023-05-02T08:44:04.139Z,86313.94
2023-05-02T08:46:32.482Z,86320.78
2023-05-02T08:49:00.682Z,86346.75
2023-05-02T08:51:29.435Z,86368.44
2023-05-02T08:53:58.590Z,86374.09
2023-05-02T08:56:26.603Z,86340.34
2023-05-02T08:58:53.605Z,86375.94
2023-05-02T09:01:31.411Z,86320.25
2023-05-02T09:03:59.974Z,86276.69
2023-05-02T09:06:27.821Z,86305.41
2023-05-02T09:08:55.300Z,86352.66
2023-05-02T09:11:22.512Z,86340.19
2023-05-02T09:13:52.161Z,86335.44
2023-05-02T09:16:24.352Z,86371.50
2023-05-02T09:18:58.964Z,86364.88
2023-05-02T09:21:35.113Z,86359.81
2023-05-02T09:24:04.032Z,86360.66
2023-05-02T09:26:32.830Z,86353.59
2023-05-02T09:29:02.215Z,86307.09
2023-05-02T09:31:53.940Z,86358.19
2023-05-02T09:34:22.641Z,86360.63
2023-05-02T09:36:56.025Z,86317.91
2023-05-02T09:39:29.285Z,86341.25
2023-05-02T09:41:57.225Z,86312.50
2023-05-02T09:44:26.705Z,86324.97
2023-05-02T09:46:55.492Z,86354.09
2023-05-02T09:49:44.864Z,86358.34
2023-05-02T09:52:13.692Z,86359.09
2023-05-02T09:54:40.894Z,86294.91
2023-05-02T09:57:08.157Z,86300.94
2023-05-02T09:59:35.161Z,86328.41
2023-05-02T10:02:04.594Z,86358.84
2023-05-02T10:04:33.859Z,86366.44
2023-05-02T10:07:03.080Z,86367.41
2023-05-02T10:09:32.842Z,86314.41
2023-05-02T10:12:06.916Z,86362.28
2023-05-02T10:14:41.807Z,86283.94
2023-05-02T10:17:21.662Z,86357.72
2023-05-02T10:20:00.661Z,86281.06
2023-05-02T10:22:28.343Z,86341.03
2023-05-02T10:24:58.263Z,86309.63
2023-05-02T10:27:26.209Z,86361.66
2023-05-02T10:29:54.695Z,86337.28
2023-05-02T10:32:23.948Z,86344.91
2023-05-02T10:34:53.027Z,86335.09
2023-05-02T10:37:20.596Z,86328.28
2023-05-02T10:39:47.556Z,86267.44
2023-05-02T10:42:15.055Z,86306.13
2023-05-02T10:44:42.067Z,86193.34
2023-05-02T10:47:23.301Z,86345.59
2023-05-02T10:49:56.851Z,86282.47
2023-05-02T10:52:41.647Z,86254.91
2023-05-02T10:55:22.395Z,86347.00
2023-05-02T10:58:01.164Z,86347.56
2023-05-02T11:00:30.731Z,86343.03
2023-05-02T11:02:58.083Z,86329.38
2023-05-02T11:05:26.428Z,86296.56
2023-05-02T11:08:15.150Z,86338.72
2023-05-02T11:10:42.362Z,86338.97
2023-05-02T11:13:09.589Z,86309.69
2023-05-02T11:15:42.363Z,86342.44
2023-05-02T11:18:12.135Z,86329.63
2023-05-02T11:20:44.158Z,86343.25
2023-05-02T11:23:17.030Z,86333.84
2023-05-02T11:25:46.503Z,86295.94
2023-05-02T11:28:38.372Z,86335.59
2023-05-02T11:31:06.970Z,86290.09
2023-05-02T11:33:34.047Z,86332.13
2023-05-02T11:36:01.379Z,86323.66
2023-05-02T11:38:39.033Z,86337.16
2023-05-02T11:41:06.230Z,86288.00
2023-05-02T11:43:33.374Z,86253.00
2023-05-02T11:46:02.316Z,86272.13
2023-05-02T11:48:31.026Z,86329.94
2023-05-02T11:51:02.522Z,86308.28
2023-05-02T11:53:30.185Z,86321.97
2023-05-02T11:56:02.421Z,86274.78
2023-05-02T11:58:32.971Z,86333.13
2023-05-02T12:01:13.535Z,86246.44
2023-05-02T12:03:41.660Z,86305.97
2023-05-02T12:06:18.632Z,86314.59
2023-05-02T12:08:46.292Z,86227.22
2023-05-02T12:11:16.129Z,86286.03
2023-05-02T12:13:50.777Z,86274.81
2023-05-02T12:16:19.173Z,86296.91
2023-05-02T12:18:47.956Z,86227.78
2023-05-02T12:21:19.383Z,86286.03
2023-05-02T12:23:46.786Z,86247.47
2023-05-02T12:26:21.907Z,86270.56
2023-05-02T12:28:51.036Z,86296.03
2023-05-02T12:31:18.223Z,86261.34
2023-05-02T12:33:48.389Z,86248.38
2023-05-02T12:36:15.854Z,86271.28
2023-05-02T12:39:08.991Z,86219.44
2023-05-02T12:41:37.916Z,86246.19
2023-05-02T12:44:06.294Z,86237.22
2023-05-02T12:46:33.574Z,86281.34
2023-05-02T12:49:12.644Z,86191.41
2023-05-02T12:51:40.905Z,86277.44
2023-05-02T12:54:08.149Z,86259.72
2023-05-02T12:56:43.753Z,86282.50
2023-05-02T12:59:26.208Z,86279.84
2023-05-02T13:01:53.213Z,86255.41
2023-05-02T13:04:20.486Z,86254.97
2023-05-02T13:06:47.522Z,86263.41
2023-05-02T13:09:16.828Z,86266.47
2023-05-02T13:11:44.081Z,86272.72
2023-05-02T13:14:11.857Z,86261.31
2023-05-02T13:16:38.932Z,86269.94
2023-05-02T13:19:06.287Z,86263.81
2023-05-02T13:21:33.293Z,86241.38
2023-05-02T13:24:00.303Z,86261.81
2023-05-02T13:26:27.239Z,86240.97
2023-05-02T13:28:54.188Z,86209.88
2023-05-02T13:31:21.394Z,86269.06
2023-05-02T13:33:48.473Z,86227.72
2023-05-02T13:36:15.386Z,86259.59
2023-05-02T13:38:42.295Z,86220.13
2023-05-02T13:41:09.299Z,86229.84
2023-05-02T13:43:36.446Z,86196.22
2023-05-02T13:46:03.544Z,86253.50
2023-05-02T13:48:30.655Z,86233.88
2023-05-02T13:50:57.638Z,86262.00
2023-05-02T13:53:24.655Z,86262.09
2023-05-02T13:55:51.595Z,86266.63
2023-05-02T13:58:18.650Z,86267.78
2023-05-02T14:00:45.702Z,86232.03
2023-05-02T14:03:13.743Z,86250.50
2023-05-02T14:05:43.863Z,86252.50
2023-05-02T14:08:11.693Z,86229.56
2023-05-02T14:10:39.127Z,86261.00
2023-05-02T14:13:06.112Z,86211.94
2023-05-02T14:15:33.175Z,86218.91
2023-05-02T14:18:00.200Z,86252.25
2023-05-02T14:20:27.298Z,86213.03
2023-05-02T14:22:54.419Z,86215.56
2023-05-02T14:25:21.493Z,86266.75
2023-05-02T14:27:48.415Z,86225.88
2023-05-02T14:30:15.577Z,86244.06
2023-05-02T14:32:45.640Z,86250.16
2023-05-02T14:35:14.599Z,86270.34
2023-05-02T14:37:45.029Z,86224.91
2023-05-02T14:40:12.702Z,86234.63
2023-05-02T14:42:43.459Z,86200.31
2023-05-02T14:45:11.199Z,86216.84
2023-05-02T14:47:41.686Z,86218.56
2023-05-02T14:50:10.287Z,86218.22
2023-05-02T14:52:37.346Z,86262.50
2023-05-02T14:55:04.844Z,86211.44
2023-05-02T14:57:32.845Z,86232.69
2023-05-02T15:00:00.088Z,86237.47
2023-05-02T15:02:27.330Z,86197.50
2023-05-02T15:04:54.551Z,86193.25
2023-05-02T15:07:22.048Z,86227.75
2023-05-02T15:09:49.370Z,86268.06
2023-05-02T15:12:16.348Z,86260.97
2023-05-02T15:14:43.475Z,86220.13
2023-05-02T15:17:10.476Z,86230.84
2023-05-02T15:19:40.677Z,86217.19
2023-05-02T15:22:10.594Z,86220.34
2023-05-02T15:24:37.854Z,86198.03
2023-05-02T15:27:04.881Z,86251.41
2023-05-02T15:29:31.958Z,86233.97
2023-05-02T15:31:59.148Z,86223.31
2023-05-02T15:34:26.254Z,86213.00
2023-05-02T15:36:53.829Z,86173.69
2023-05-02T15:39:29.054Z,86185.16
2023-05-02T15:41:57.132Z,86253.50
2023-05-02T15:44:26.233Z,86237.00
2023-05-02T15:46:53.353Z,86244.97
2023-05-02T15:49:20.382Z,86229.06
2023-05-02T15:52:12.972Z,86259.75
2023-05-02T15:54:40.022Z,86169.25
2023-05-02T15:57:07.681Z,86234.13
2023-05-02T15:59:34.883Z,86060.72
2023-05-02T16:02:02.009Z,86255.13
2023-05-02T16:04:29.415Z,86187.06
2023-05-02T16:06:56.663Z,86167.09
2023-05-02T16:09:23.774Z,86276.38
2023-05-02T16:11:51.390Z,86235.22
2023-05-02T16:14:18.446Z,86217.47
2023-05-02T16:16:45.648Z,86247.63
2023-05-02T16:19:13.672Z,86272.84
2023-05-02T16:21:44.975Z,86229.06
2023-05-02T16:24:12.375Z,86216.56
2023-05-02T16:26:39.491Z,86184.59
2023-05-02T16:29:06.744Z,86237.41
2023-05-02T16:31:33.889Z,86234.78
2023-05-02T16:34:01.110Z,86237.97
2023-05-02T16:36:29.253Z,86215.50
2023-05-02T16:38:56.179Z,86238.91
2023-05-02T16:41:23.383Z,86282.91
2023-05-02T16:43:50.486Z,86251.69
2023-05-02T16:46:18.128Z,86284.13
2023-05-02T16:51:12.233Z,86267.91
2023-05-02T16:53:39.223Z,86288.59
2023-05-02T16:56:09.060Z,86232.31
2023-05-02T16:58:36.138Z,86261.22
2023-05-02T17:01:03.133Z,86223.72
2023-05-02T17:03:30.276Z,86283.06
2023-05-02T17:06:01.343Z,86248.69
2023-05-02T17:08:28.960Z,86260.59
2023-05-02T17:10:56.312Z,86230.19
2023-05-02T17:13:23.645Z,86276.84
2023-05-02T17:15:51.478Z,86286.44
2023-05-02T17:18:18.826Z,86279.75
2023-05-02T17:20:47.008Z,86234.34
2023-05-02T17:23:14.691Z,86291.22
2023-05-02T17:25:42.376Z,86284.25
2023-05-02T17:28:09.518Z,86244.66
2023-05-02T17:30:36.695Z,86218.03
2023-05-02T17:33:03.880Z,86277.69
2023-05-02T17:35:31.889Z,86271.78
2023-05-02T17:37:58.880Z,86212.91
2023-05-02T17:40:25.853Z,86281.13
2023-05-02T17:42:52.778Z,86203.53
2023-05-02T17:45:19.767Z,86250.59
2023-05-02T17:47:46.945Z,86278.63
2023-05-02T17:50:14.345Z,86288.66
2023-05-02T17:52:41.604Z,86257.06
2023-05-02T17:55:09.069Z,86238.78
2023-05-02T17:57:36.353Z,86249.00
2023-05-02T18:00:04.878Z,86285.41
2023-05-02T18:02:34.724Z,86242.25
2023-05-02T18:05:04.052Z,86282.06
2023-05-02T18:07:31.903Z,86261.56
2023-05-02T18:10:02.399Z,86245.25
2023-05-02T18:12:29.692Z,86274.19
2023-05-02T18:14:56.711Z,86227.63
2023-05-02T18:17:24.383Z,86264.22
2023-05-02T18:19:51.484Z,86225.31
2023-05-02T18:22:21.365Z,86225.69
2023-05-02T18:24:49.931Z,86196.34
2023-05-02T18:27:17.837Z,86288.47
2023-05-02T18:29:44.904Z,86256.81
2023-05-02T18:32:11.978Z,86209.53
2023-05-02T18:34:39.245Z,86288.03
2023-05-02T18:37:07.204Z,86234.44
2023-05-02T18:39:34.701Z,86304.25
2023-05-02T18:42:05.169Z,86303.25
2023-05-02T18:44:32.326Z,86268.06
2023-05-02T18:47:01.221Z,86208.53
2023-05-02T18:49:28.229Z,86248.41
2023-05-02T18:51:55.201Z,86273.34
2023-05-02T18:54:23.593Z,86312.66
2023-05-02T18:56:50.662Z,86294.25
2023-05-02T18:59:19.065Z,86301.06
2023-05-02T19:01:49.546Z,86301.03
2023-05-02T19:04:16.748Z,86272.06
2023-05-02T19:06:43.862Z,86238.88
2023-05-02T19:09:13.357Z,86279.53
2023-05-02T19:11:40.776Z,86302.16
2023-05-02T19:14:08.112Z,86307.00
2023-05-02T19:16:36.137Z,86242.31
2023-05-02T19:19:03.796Z,86274.44
2023-05-02T19:21:31.621Z,86298.63
2023-05-02T19:23:58.663Z,86269.03
2023-05-02T19:26:25.829Z,86245.63
2023-05-02T19:28:52.754Z,86272.31
2023-05-02T19:31:20.969Z,86303.59
2023-05-02T19:33:55.029Z,86274.47
2023-05-02T19:36:24.284Z,86225.22
2023-05-02T19:38:52.276Z,86293.50
2023-05-02T19:41:19.988Z,86230.88
2023-05-02T19:43:47.178Z,86289.94
2023-05-02T19:46:15.096Z,86292.34
2023-05-02T19:48:42.225Z,86274.56
2023-05-02T19:51:09.658Z,86240.75
2023-05-02T19:53:45.380Z,86289.03
2023-05-02T19:56:12.428Z,86266.91
2023-05-02T19:58:39.541Z,86144.53
2023-05-02T20:01:06.687Z,86119.63
2023-05-02T20:03:35.303Z,86253.19
2023-05-02T20:06:02.486Z,86218.25
2023-05-02T20:08:31.555Z,86241.63
2023-05-02T20:10:58.688Z,86239.53
2023-05-02T20:13:25.794Z,86222.47
2023-05-02T20:15:53.692Z,86218.28
2023-05-02T20:18:21.271Z,86224.50
2023-05-02T20:20:48.312Z,86212.69
2023-05-02T20:23:16.132Z,86265.00
2023-05-02T20:25:44.031Z,86219.56
2023-05-02T20:28:11.192Z,86264.28
2023-05-02T20:30:39.999Z,86286.97
2023-05-02T20:33:15.599Z,86173.31
2023-05-02T20:35:44.775Z,86213.19
2023-05-02T20:38:12.520Z,86285.34
2023-05-02T20:40:40.943Z,86261.38
2023-05-02T20:43:09.026Z,86243.84
2023-05-02T20:45:36.220Z,86210.53
2023-05-02T20:48:03.347Z,86257.25
2023-05-02T20:50:30.651Z,86187.16
2023-05-02T20:52:58.766Z,86281.41
2023-05-02T20:55:26.038Z,86256.56
2023-05-02T20:57:53.833Z,86220.81
2023-05-02T21:00:24.446Z,86272.19
2023-05-02T21:02:51.545Z,86277.81
2023-05-02T21:05:18.738Z,86288.84
2023-05-02T21:07:45.747Z,86255.22
2023-05-02T21:10:12.893Z,86283.22
2023-05-02T21:12:40.209Z,86254.41
2023-05-02T21:15:08.217Z,86286.13
2023-05-02T21:17:35.716Z,86238.00
2023-05-02T21:20:03.220Z,86224.38
2023-05-02T21:22:30.538Z,86287.53
2023-05-02T21:24:57.631Z,86123.03
2023-05-02T21:27:24.816Z,86099.19
2023-05-02T21:29:52.056Z,86294.50
2023-05-02T21:32:19.203Z,86274.41
2023-05-02T21:34:46.434Z,86175.94
2023-05-02T21:37:13.393Z,86221.41
2023-05-02T21:39:40.452Z,86203.47
2023-05-02T21:42:07.564Z,86282.53
2023-05-02T21:44:34.650Z,86236.47
2023-05-02T21:47:01.626Z,86103.06
2023-05-02T21:49:31.539Z,86249.50
2023-05-02T21:51:58.993Z,86266.81
2023-05-02T21:54:26.040Z,86222.63
2023-05-02T21:56:55.810Z,86209.63
2023-05-02T21:59:22.802Z,86235.78
2023-05-02T22:01:49.949Z,86087.94
2023-05-02T22:04:18.388Z,86178.66
2023-05-02T22:06:52.101Z,86207.50
2023-05-02T22:09:21.161Z,86245.38
2023-05-02T22:11:48.117Z,86240.66
2023-05-02T22:14:15.271Z,86212.59
2023-05-02T22:16:42.255Z,86195.34
2023-05-02T22:19:11.659Z,86223.06
2023-05-02T22:21:38.549Z,86251.78
2023-05-02T22:24:06.031Z,86147.28
2023-05-02T22:26:33.142Z,86253.94
2023-05-02T22:29:00.256Z,86231.28
2023-05-02T22:31:27.415Z,86187.13
2023-05-02T22:33:54.428Z,86238.75
2023-05-02T22:36:21.536Z,86191.34
2023-05-02T22:38:48.538Z,86165.84
2023-05-02T22:41:15.544Z,86251.81
2023-05-02T22:43:42.561Z,86183.69
2023-05-02T22:46:09.550Z,86249.78
2023-05-02T22:48:36.726Z,86179.59
2023-05-02T22:51:03.887Z,86219.44
2023-05-02T22:53:31.513Z,86261.50
2023-05-02T22:55:58.572Z,86177.47
2023-05-02T22:58:25.641Z,86172.00
2023-05-02T23:00:52.605Z,86165.09
2023-05-02T23:03:19.699Z,86170.56
2023-05-02T23:05:46.761Z,86203.69
2023-05-02T23:08:13.787Z,86209.13
2023-05-02T23:10:40.997Z,86223.09
2023-05-02T23:13:08.114Z,86205.16
2023-05-02T23:15:35.250Z,86235.47
2023-05-02T23:18:02.454Z,86272.59
2023-05-02T23:20:29.486Z,86147.47
2023-05-02T23:22:56.474Z,86286.63
2023-05-02T23:25:25.920Z,86264.97
2023-05-02T23:27:53.266Z,86217.97
2023-05-02T23:30:20.242Z,86281.25
2023-05-02T23:32:47.398Z,86282.84
2023-05-02T23:35:14.636Z,86274.59
2023-05-02T23:37:42.068Z,86190.50
2023-05-02T23:40:09.495Z,86178.03
2023-05-02T23:42:40.505Z,86259.94
2023-05-02T23:45:11.209Z,86228.97
2023-05-02T23:47:38.729Z,86213.09
2023-05-02T23:50:06.217Z,86266.75
2023-05-02T23:52:35.927Z,86171.00
2023-05-02T23:55:03.284Z,86157.25
2023-05-02T23:57:30.932Z,86182.00
2023-05-02T23:59:58.008Z,86193.06
